createdAt,value
2022-09-24T07:10:06.856Z,30.83
2022-09-24T07:12:37.258Z,29.52
2022-09-24T07:15:08.035Z,36.30
2022-09-24T07:17:37.264Z,28.67
2022-09-24T07:20:07.494Z,23.08
2022-09-24T07:22:41.014Z,18.98
2022-09-24T07:25:13.257Z,52.38
2022-09-24T07:27:42.473Z,64.38
2022-09-24T07:30:12.969Z,66.22
2022-09-24T07:32:42.068Z,51.28
2022-09-24T07:35:11.390Z,50.90
2022-09-24T07:37:40.501Z,47.20
2022-09-24T07:40:12.079Z,42.38
2022-09-24T07:42:48.532Z,43.63
2022-09-24T07:45:18.418Z,44.95
2022-09-24T07:47:47.584Z,41.53
2022-09-24T07:50:17.952Z,50.03
2022-09-24T07:52:52.213Z,46.55
2022-09-24T07:55:23.070Z,59.70
2022-09-24T07:57:55.746Z,84.57
2022-09-24T08:02:56.642Z,89.35
2022-09-24T08:05:25.913Z,89.40
2022-09-24T08:07:57.195Z,81.63
2022-09-24T08:10:29.880Z,85.20
2022-09-24T08:13:03.475Z,88.82
2022-09-24T08:15:32.610Z,92.75
2022-09-24T08:18:03.808Z,89.13
2022-09-24T08:20:34.376Z,78.15
2022-09-24T08:23:04.377Z,79.80
2022-09-24T08:25:35.221Z,102.72
2022-09-24T08:28:04.999Z,90.38
2022-09-24T08:30:35.118Z,83.18
2022-09-24T08:33:05.512Z,80.00
2022-09-24T08:35:35.036Z,89.72
2022-09-24T08:38:04.636Z,89.75
2022-09-24T08:40:40.441Z,95.43
2022-09-24T08:43:25.863Z,64.65
2022-09-24T08:46:18.849Z,83.82
2022-09-24T08:48:53.363Z,89.30
2022-09-24T08:51:24.934Z,100.20
2022-09-24T08:53:59.725Z,93.88
2022-09-24T08:56:39.706Z,92.07
2022-09-24T08:59:24.126Z,98.60
2022-09-24T09:02:14.306Z,71.80
2022-09-24T09:04:58.171Z,90.38
2022-09-24T09:07:32.420Z,72.95
2022-09-24T09:10:05.600Z,91.35
2022-09-24T09:12:40.926Z,80.20
2022-09-24T09:15:17.516Z,55.97
2022-09-24T09:17:52.265Z,61.50
2022-09-24T09:20:26.699Z,57.00
2022-09-24T09:22:56.226Z,86.30
2022-09-24T09:25:28.692Z,49.45
2022-09-24T09:28:06.059Z,40.00
2022-09-24T09:30:43.733Z,37.47
2022-09-24T09:33:28.789Z,34.78
2022-09-24T09:36:21.475Z,36.08
2022-09-24T09:39:01.397Z,35.10
2022-09-24T09:41:40.582Z,34.88
2022-09-24T09:44:18.045Z,81.20
2022-09-24T09:46:55.457Z,87.47
2022-09-24T09:49:29.100Z,82.30
2022-09-24T09:52:03.685Z,104.93
2022-09-24T09:54:39.860Z,107.07
2022-09-24T09:57:15.619Z,118.28
2022-09-24T09:59:49.485Z,198.35
2022-09-24T10:02:27.079Z,176.65
2022-09-24T10:04:59.625Z,180.35
2022-09-24T10:07:31.711Z,262.63
2022-09-24T10:10:18.614Z,258.70
2022-09-24T10:12:48.507Z,234.00
2022-09-24T10:15:21.937Z,235.93
2022-09-24T10:17:55.595Z,215.57
2022-09-24T10:20:29.453Z,216.65
2022-09-24T10:23:03.930Z,165.02
2022-09-24T10:25:36.335Z,206.68
2022-09-24T10:28:28.027Z,152.35
2022-09-24T10:31:02.794Z,178.48
2022-09-24T10:33:38.527Z,147.43
2022-09-24T10:36:14.301Z,173.45
2022-09-24T10:38:43.785Z,97.80
2022-09-24T10:41:26.188Z,119.50
2022-09-24T10:43:57.234Z,121.85
2022-09-24T10:46:52.126Z,54.33
2022-09-24T10:49:39.181Z,87.22
2022-09-24T10:52:31.996Z,104.68
2022-09-24T10:55:19.322Z,110.25
2022-09-24T10:58:04.183Z,69.78
2022-09-24T11:00:41.634Z,126.78
2022-09-24T11:04:05.612Z,107.20
2022-09-24T11:06:51.206Z,91.47
2022-09-24T11:09:32.177Z,138.77
2022-09-24T11:12:11.474Z,122.00
2022-09-24T11:14:56.052Z,150.00
2022-09-24T11:17:34.634Z,154.80
2022-09-24T11:20:21.855Z,168.63
2022-09-24T11:23:18.983Z,197.82
2022-09-24T11:25:56.251Z,172.95
2022-09-24T11:28:48.620Z,219.82
2022-09-24T11:31:27.828Z,221.15
2022-09-24T11:34:15.215Z,244.35
2022-09-24T11:37:03.338Z,256.17
2022-09-24T11:39:52.563Z,214.50
2022-09-24T11:42:31.368Z,224.43
2022-09-24T11:45:41.266Z,234.75
2022-09-24T11:48:45.948Z,169.95
2022-09-24T11:51:29.455Z,180.68
2022-09-24T11:54:09.257Z,182.13
2022-09-24T11:56:43.525Z,198.93
2022-09-24T11:59:23.784Z,197.13
2022-09-24T12:02:03.793Z,222.77
2022-09-24T12:04:50.452Z,148.02
2022-09-24T12:07:29.703Z,135.70
2022-09-24T12:10:06.142Z,172.00
2022-09-24T12:12:40.775Z,143.02
2022-09-24T12:15:19.912Z,163.40
2022-09-24T12:17:57.906Z,118.57
2022-09-24T12:20:30.343Z,157.55
2022-09-24T12:23:05.449Z,132.93
2022-09-24T12:25:45.200Z,145.32
2022-09-24T12:28:36.834Z,173.85
2022-09-24T12:31:32.759Z,180.45
2022-09-24T12:34:09.898Z,164.45
2022-09-24T12:36:57.547Z,138.32
2022-09-24T12:39:31.771Z,132.35
2022-09-24T12:42:06.154Z,155.60
2022-09-24T12:44:46.443Z,135.50
2022-09-24T12:47:24.091Z,125.78
2022-09-24T12:49:57.781Z,172.38
2022-09-24T12:52:33.052Z,143.70
2022-09-24T12:55:05.522Z,143.45
2022-09-24T13:00:37.820Z,127.07
2022-09-24T13:03:08.677Z,120.90
2022-09-24T13:05:49.926Z,131.20
2022-09-24T13:08:27.955Z,125.07
2022-09-24T13:11:00.825Z,117.68
2022-09-24T13:13:35.329Z,126.97
2022-09-24T13:16:07.891Z,116.07
2022-09-24T13:21:10.303Z,130.48
2022-09-24T13:23:48.664Z,164.60
2022-09-24T13:26:35.062Z,109.45
2022-09-24T13:29:07.170Z,117.15
2022-09-24T13:31:49.064Z,138.10
2022-09-24T13:34:23.284Z,172.93
2022-09-24T13:37:00.851Z,128.35
2022-09-24T13:39:38.195Z,113.93
2022-09-24T13:42:18.971Z,146.80
2022-09-24T13:44:53.950Z,121.35
2022-09-24T13:47:30.792Z,162.27
2022-09-24T13:50:10.134Z,109.40
2022-09-24T13:52:45.171Z,127.80
2022-09-24T13:55:22.974Z,121.93
2022-09-24T13:57:52.393Z,112.93
2022-09-24T14:00:27.704Z,128.43
2022-09-24T14:03:02.912Z,113.82
2022-09-24T14:05:37.209Z,140.80
2022-09-24T14:08:09.822Z,129.40
2022-09-24T14:10:40.157Z,140.38
2022-09-24T14:13:21.511Z,133.85
2022-09-24T14:15:57.724Z,180.32
2022-09-24T14:18:28.815Z,127.47
2022-09-24T14:21:04.204Z,171.35
2022-09-24T14:23:40.353Z,176.02
2022-09-24T14:26:17.219Z,170.15
2022-09-24T14:28:46.745Z,133.27
2022-09-24T14:31:17.505Z,129.98
2022-09-24T14:33:47.127Z,139.40
2022-09-24T14:36:17.220Z,156.60
2022-09-24T14:38:59.165Z,116.60
2022-09-24T14:41:33.192Z,172.23
2022-09-24T14:44:07.907Z,112.18
2022-09-24T14:46:48.820Z,94.50
2022-09-24T14:49:23.567Z,84.28
2022-09-24T14:51:55.011Z,102.15
2022-09-24T14:54:33.075Z,108.43
2022-09-24T14:57:24.772Z,110.72
2022-09-24T14:59:54.354Z,98.07
2022-09-24T15:02:32.027Z,113.03
2022-09-24T15:05:06.482Z,135.23
2022-09-24T15:07:36.818Z,148.80
2022-09-24T15:10:07.791Z,102.05
2022-09-24T15:12:39.134Z,101.03
2022-09-24T15:15:30.611Z,99.07
2022-09-24T15:18:01.277Z,107.85
2022-09-24T15:20:30.383Z,102.80
2022-09-24T15:22:59.460Z,133.55
2022-09-24T15:25:29.071Z,159.18
2022-09-24T15:27:59.435Z,92.55
2022-09-24T15:30:28.633Z,108.38
2022-09-24T15:32:58.063Z,96.63
2022-09-24T15:35:28.721Z,90.75
2022-09-24T15:37:59.956Z,92.80
2022-09-24T15:40:31.237Z,119.20
2022-09-24T15:43:00.558Z,80.55
2022-09-24T15:45:29.650Z,80.97
2022-09-24T15:47:58.898Z,125.95
2022-09-24T15:50:29.594Z,119.95
2022-09-24T15:53:02.000Z,132.60
2022-09-24T15:55:31.443Z,128.20
2022-09-24T15:58:02.041Z,114.93
2022-09-24T16:00:31.175Z,149.73
2022-09-24T16:03:00.719Z,110.78
2022-09-24T16:05:31.289Z,133.80
2022-09-24T16:08:00.399Z,137.52
2022-09-24T16:10:29.629Z,101.95
2022-09-24T16:12:58.788Z,118.97
2022-09-24T16:15:28.132Z,137.20
2022-09-24T16:17:57.205Z,104.65
2022-09-24T16:20:26.363Z,94.35
2022-09-24T16:22:57.003Z,113.95
2022-09-24T16:25:27.493Z,120.03
2022-09-24T16:27:57.589Z,94.45
2022-09-24T16:30:26.917Z,73.47
2022-09-24T16:32:56.007Z,101.70
2022-09-24T16:35:25.197Z,113.13
2022-09-24T16:37:54.286Z,71.45
2022-09-24T16:40:24.861Z,107.00
2022-09-24T16:42:54.126Z,96.95
2022-09-24T16:45:23.212Z,71.72
2022-09-24T16:47:52.381Z,95.97
2022-09-24T16:50:23.764Z,95.43
2022-09-24T16:52:54.961Z,73.25
2022-09-24T16:55:25.543Z,78.90
2022-09-24T16:57:54.998Z,69.43
2022-09-24T17:00:24.133Z,68.90
2022-09-24T17:02:53.734Z,76.07
2022-09-24T17:05:22.949Z,92.20
2022-09-24T17:07:52.045Z,55.30
2022-09-24T17:10:23.712Z,66.85
2022-09-24T17:12:54.302Z,54.93
2022-09-24T17:15:23.422Z,47.50
2022-09-24T17:17:52.509Z,40.25
2022-09-24T17:20:22.978Z,39.72
2022-09-24T17:22:52.146Z,38.40
2022-09-24T17:25:21.285Z,53.05
2022-09-24T17:27:50.494Z,49.53
2022-09-24T17:30:21.988Z,39.72
2022-09-24T17:32:52.340Z,41.88
2022-09-24T17:35:21.492Z,33.55
2022-09-24T17:37:50.984Z,38.78
2022-09-24T17:40:23.830Z,38.15
2022-09-24T17:42:53.678Z,36.22
2022-09-24T17:45:24.287Z,37.92
2022-09-24T17:48:00.706Z,32.85
2022-09-24T17:50:30.212Z,35.30
2022-09-24T17:53:00.045Z,37.03
2022-09-24T17:55:29.358Z,31.80
2022-09-24T17:57:58.502Z,36.63
2022-09-24T18:00:29.242Z,31.13
2022-09-24T18:02:58.547Z,31.33
2022-09-24T18:05:27.816Z,28.92
2022-09-24T18:07:57.033Z,34.03
2022-09-24T18:10:26.308Z,35.10
2022-09-24T18:12:55.775Z,32.50
2022-09-24T18:15:25.475Z,32.00
2022-09-24T18:17:56.815Z,32.85
2022-09-24T18:20:27.167Z,37.42
2022-09-24T18:22:56.334Z,32.03
2022-09-24T18:25:27.282Z,32.67
2022-09-24T18:28:00.966Z,34.08
2022-09-24T18:30:30.534Z,34.05
2022-09-24T18:33:02.749Z,33.55
2022-09-24T18:35:31.857Z,34.00
2022-09-24T18:38:01.173Z,35.45
2022-09-24T18:40:30.675Z,37.83
2022-09-24T18:43:00.124Z,34.58
2022-09-24T18:45:29.570Z,40.97
2022-09-24T18:48:00.066Z,43.67
2022-09-24T18:50:29.553Z,34.55
2022-09-24T18:53:00.090Z,39.50
2022-09-24T18:55:30.483Z,38.05
2022-09-24T18:57:59.727Z,39.20
2022-09-24T19:00:46.551Z,37.72
2022-09-24T19:03:17.854Z,38.15
2022-09-24T19:05:47.999Z,39.20
2022-09-24T19:08:17.465Z,37.50
2022-09-24T19:10:46.847Z,36.97
2022-09-24T19:13:17.072Z,37.35
2022-09-24T19:15:46.978Z,37.63
2022-09-24T19:18:18.524Z,34.88
2022-09-24T19:20:49.751Z,34.95
2022-09-24T19:23:19.016Z,35.65
2022-09-24T19:25:48.178Z,35.35
2022-09-24T19:28:17.572Z,35.28
2022-09-24T19:30:49.447Z,35.47
2022-09-24T19:33:20.558Z,37.88
2022-09-24T19:35:56.319Z,34.45
2022-09-24T19:38:28.635Z,41.70
2022-09-24T19:41:02.925Z,36.40
2022-09-24T19:43:33.338Z,37.88
2022-09-24T19:46:04.542Z,42.08
2022-09-24T19:48:39.831Z,48.25
2022-09-24T19:51:13.610Z,44.65
2022-09-24T19:53:43.950Z,46.70
2022-09-24T19:56:13.334Z,48.50
2022-09-24T19:58:42.536Z,54.22
2022-09-24T20:01:16.314Z,53.25
2022-09-24T20:03:48.669Z,63.03
2022-09-24T20:06:21.033Z,78.40
2022-09-24T20:08:50.713Z,77.47
2022-09-24T20:11:22.045Z,62.92
2022-09-24T20:13:53.142Z,69.28
2022-09-24T20:16:26.476Z,66.55
2022-09-24T20:18:58.533Z,71.78
2022-09-24T20:21:30.129Z,85.17
2022-09-24T20:24:01.348Z,81.13
2022-09-24T20:26:48.106Z,95.10
2022-09-24T20:29:19.691Z,75.93
2022-09-24T20:31:52.931Z,85.10
2022-09-24T20:34:33.611Z,77.25
2022-09-24T20:37:04.521Z,71.13
2022-09-24T20:39:34.291Z,72.20
2022-09-24T20:42:04.032Z,75.60
2022-09-24T20:44:34.134Z,68.90
2022-09-24T20:47:03.483Z,75.95
2022-09-24T20:49:34.883Z,74.35
2022-09-24T20:52:06.138Z,71.50
2022-09-24T20:54:35.518Z,62.17
2022-09-24T20:57:05.033Z,68.82
2022-09-24T20:59:34.429Z,76.70
2022-09-24T21:02:03.886Z,65.38
2022-09-24T21:04:35.949Z,77.60
2022-09-24T21:07:05.877Z,66.05
2022-09-24T21:09:35.025Z,49.38
2022-09-24T21:12:04.533Z,44.33
2022-09-24T21:14:35.865Z,69.70
2022-09-24T21:17:05.163Z,47.45
2022-09-24T21:19:36.521Z,46.95
2022-09-24T21:22:06.161Z,52.55
2022-09-24T21:24:35.337Z,50.53
2022-09-24T21:27:05.360Z,36.33
2022-09-24T21:29:34.554Z,38.47
2022-09-24T21:32:04.022Z,42.40
2022-09-24T21:34:35.770Z,53.45
2022-09-24T21:37:04.944Z,34.50
2022-09-24T21:39:34.150Z,30.80
2022-09-24T21:42:03.236Z,37.28
2022-09-24T21:44:34.330Z,38.47
2022-09-24T21:47:03.504Z,27.80
2022-09-24T21:49:36.781Z,32.03
2022-09-24T21:52:07.083Z,29.92
2022-09-24T21:54:36.627Z,28.20
2022-09-24T21:57:05.828Z,31.55
2022-09-24T21:59:52.224Z,35.13
2022-09-24T22:02:21.591Z,33.00
2022-09-24T22:04:52.261Z,34.13
2022-09-24T22:07:21.418Z,36.78
2022-09-24T22:09:50.702Z,40.58
2022-09-24T22:12:19.878Z,41.78
2022-09-24T22:14:49.008Z,39.80
2022-09-24T22:17:20.595Z,43.47
2022-09-24T22:19:51.224Z,42.55
2022-09-24T22:22:21.780Z,44.25
2022-09-24T22:24:50.890Z,41.20
2022-09-24T22:27:20.006Z,42.42
2022-09-24T22:29:49.119Z,42.80
2022-09-24T22:32:18.258Z,46.47
2022-09-24T22:35:04.672Z,42.97
2022-09-24T22:37:35.283Z,42.60
2022-09-24T22:40:04.468Z,42.45
2022-09-24T22:42:33.544Z,39.92
2022-09-24T22:45:02.671Z,41.95
2022-09-24T22:47:31.855Z,40.90
2022-09-24T22:50:01.046Z,38.47
2022-09-24T22:52:30.256Z,37.35
2022-09-24T22:55:00.797Z,35.60
2022-09-24T22:57:29.955Z,32.88
2022-09-24T23:00:01.414Z,32.60
2022-09-24T23:02:31.340Z,32.42
2022-09-24T23:05:00.614Z,32.70
2022-09-24T23:07:29.897Z,32.58
2022-09-24T23:10:00.473Z,33.35
2022-09-24T23:12:33.051Z,31.23
2022-09-24T23:15:02.532Z,27.73
2022-09-24T23:17:32.849Z,28.23
2022-09-24T23:20:03.083Z,29.70
2022-09-24T23:22:32.262Z,29.42
2022-09-24T23:25:02.979Z,28.10
2022-09-24T23:27:32.603Z,29.40
2022-09-24T23:30:01.933Z,25.77
2022-09-24T23:32:32.248Z,26.17
2022-09-24T23:35:02.005Z,27.10
2022-09-24T23:37:31.308Z,28.95
2022-09-24T23:40:02.205Z,28.15
2022-09-24T23:42:31.429Z,31.27
2022-09-24T23:45:00.560Z,27.63
2022-09-24T23:47:33.873Z,25.75
2022-09-24T23:50:05.857Z,27.25
2022-09-24T23:52:35.018Z,26.30
2022-09-24T23:55:06.043Z,25.90
2022-09-24T23:57:35.038Z,30.95
